Terminal Aerodrome Forecast
Issued by NWS

Home | Current Version | Previous Version | Text Only | Print | Product List | Glossary Off
Versions: 1 2 3 4 5 6 7 8 9 10 11 12 13 14 15 16 17 18 19 20 21 22 23 24 25 26 27 28 29 30 31

000
FTUS43 KABR 232000 AAB
TAFATY
TAF AMD
KATY 232036Z 2321/2418 15013G20KT P6SM FEW020
     FM240600 13007KT 1SM BR BKN010
     FM241500 15017KT P6SM OVC010 PROB30 2415/2418 3SM -RA BR
      OVC009=

USA.gov is the U.S. government's official web portal to all federal, state and local government web resources and services.